Time;durP1;ratioP1;P1;durP2;ratioP2;P2;SDS_P1;SDS_P2;PMS_P1;PMS_P2;Temp;Humidity;BMP_temperature;BMP_pressure;BME280_temperature;BME280_humidity;BME280_pressure;Samples;Min_cycle;Max_cycle;Signal;HPM_P1;HPM_P2
2023/04/17 05:27:43;;;;;;;14.45;6.38;;;;;;;;;;6240944;22;20483;-78
2023/04/17 05:30:35;;;;;;;;;;;;;;;;;;;;;
2023/04/17 05:33:54;;;;;;;15.50;7.93;;;;;;;;;;6198374;23;20028;-78
2023/04/17 05:36:25;;;;;;;17.23;11.00;;;;;;;;;;6209580;23;20013;-79
2023/04/17 05:41:29;;;;;;;18.05;8.32;;;;;;;;;;6253286;22;20394;-78
2023/04/17 05:43:55;;;;;;;13.63;7.63;;;;;;;;;;6243023;23;20059;-77
2023/04/17 05:46:21;;;;;;;15.32;7.28;;;;;;;;;;6232982;23;20015;-78
2023/04/17 05:48:47;;;;;;;18.45;7.32;;;;;;;;;;6235276;23;20012;-77
2023/04/17 05:51:13;;;;;;;12.30;7.50;;;;;;;;;;6240164;23;20471;-83
2023/04/17 05:53:39;;;;;;;14.15;6.90;;;;;;;;;;6244742;23;20008;-82
2023/04/17 05:56:05;;;;;;;18.15;8.25;;;;;;;;;;6241631;23;20628;-79
2023/04/17 05:58:31;;;;;;;12.90;7.03;;;;;;;;;;6243991;23;20020;-83
2023/04/17 06:00:57;;;;;;;14.05;7.50;;;;;;;;;;6239293;23;20423;-82
2023/04/17 06:03:25;;;;;;;13.50;6.53;;;;;;;;;;6229177;23;20348;-81
2023/04/17 06:05:51;;;;;;;13.55;6.78;;;;;;;;;;6236590;23;20008;-81
2023/04/17 16:11:22;;;;;;;3.83;0.45;;;;;;;;;;6266238;22;20027;-79
2023/04/17 18:28:12;;;;;;;3.22;0.90;;;;;;;;;;6233585;23;20098;-79
2023/04/17 18:31:08;;;;;;;5.00;0.90;;;;;;;;;;6235884;23;20035;-79
2023/04/17 18:37:02;;;;;;;3.67;0.80;;;;;;;;;;6087387;23;20014;-79
2023/04/17 18:39:31;;;;;;;3.83;1.00;;;;;;;;;;6118185;23;20018;-78
2023/04/17 18:42:10;;;;;;;1.85;0.60;;;;;;;;;;6191989;23;20074;-78
2023/04/17 18:44:48;;;;;;;4.90;0.85;;;;;;;;;;6188105;23;20047;-78
2023/04/17 18:47:25;;;;;;;4.63;0.70;;;;;;;;;;6236615;23;20095;-78
2023/04/17 18:50:03;;;;;;;4.20;0.70;;;;;;;;;;6240058;23;20077;-78
2023/04/17 18:55:55;;;;;;;2.58;0.80;;;;;;;;;;6147806;23;20444;-78
2023/04/17 18:58:49;;;;;;;5.13;0.85;;;;;;;;;;6119383;23;20027;-78
2023/04/17 19:07:16;;;;;;;3.72;1.15;;;;;;;;;;6240474;23;20486;-78
2023/04/17 19:09:45;;;;;;;4.10;1.15;;;;;;;;;;6239537;23;20034;-78
2023/04/17 19:12:43;;;;;;;2.33;0.80;;;;;;;;;;6240051;23;20039;-79
2023/04/17 19:21:39;;;;;;;2.85;0.82;;;;;;;;;;6160676;23;20777;-78
2023/04/17 19:24:17;;;;;;;1.88;0.90;;;;;;;;;;6239931;23;20044;-78
2023/04/17 19:26:43;;;;;;;2.70;0.98;;;;;;;;;;6239345;23;20008;-78
2023/04/17 19:29:33;;;;;;;4.30;0.80;;;;;;;;;;6239933;23;20050;-78
2023/04/17 19:34:45;;;;;;;3.92;1.40;;;;;;;;;;6210165;22;20103;-78
2023/04/17 19:37:13;;;;;;;2.85;1.08;;;;;;;;;;6207736;23;20020;-78
2023/04/17 19:39:56;;;;;;;4.35;2.05;;;;;;;;;;6180912;23;20033;-78
2023/04/17 19:42:42;;;;;;;;;;;;;;;;;;6167818;23;20026;-78
2023/04/17 19:45:19;;;;;;;2.80;1.10;;;;;;;;;;6179731;23;19912;-78
2023/04/17 19:47:56;;;;;;;2.28;0.88;;;;;;;;;;6180653;23;20005;-78
2023/04/17 19:50:26;;;;;;;1.83;0.90;;;;;;;;;;6178436;23;20013;-78
2023/04/17 20:12:31;;;;;;;3.70;1.60;;;;;;;;;;6228061;22;20855;-81
